Startpagina
METAR-TAF:

METAR-TAF

Vliegvelden :

Luchthaven Rundu

Rundu, Namibië

breedte: 17-57-20S, lengte: 019-43-25E, hoogte: 1106 m

METAR: ontbreekt

Tijdstip: 09:28 (07:28 UTC)

Verwachting

Dit bericht is 2 uur en het 28 minuten geleden gemaakt, om 05:00 UTC
Verwachting geldig van 20 om 06 UTC tot 20 om 15 UTC
Wind 4 kt uit het zuiden
Zicht 10 km of meer
Gebroken wolken op 2000 ft
lichte motregen
Wijzigt naar
van 20 om 09 UTC tot 20 om 11 UTC
Wind 4 kt uit het noordnoordoosten
Verspreide wolken op 4000 ft
Tijdelijke
van 20 om 12 UTC tot 20 om 15 UTC
Weinig wolken op 3500 ft, Cumulonimbus.
Gebroken wolken op 4000 ft
onweer, lichte regen

TAF: FYRU 200500Z 2006/2015 18004KT 9999 -DZ BKN020 BECMG 2009/2011 02004KT NSW SCT040 TEMPO 2012/2015 -TSRA FEW035CB BKN040

Waarnemingen en weersverwachtingen van meer dan 4000 vliegvelden (METAR en TAF).

De beschikbare stations zijn de gele en rode punten op de kaart.

Ga met uw muis naar het station om de naam te zien.

Klik dan om waarnemingen en weersverwachtingen te zien.

kaart wijzigen: klik op de groene knoppen met een zwart kruis om in te zoomen, op de groene knop met een streepje om uit te zoomen of op de groene pijlen voor aangrenzende kaarten.


METAR-TAF: